sensor_id;sensor_type;location;lat;lon;timestamp;temperature;humidity
14682;DHT22;7429;52.498;13.480;2022-10-31T00:01:22;11.30;99.90
14682;DHT22;7429;52.498;13.480;2022-10-31T00:04:28;11.20;99.90
14682;DHT22;7429;52.498;13.480;2022-10-31T00:07:32;11.20;99.90
14682;DHT22;7429;52.498;13.480;2022-10-31T00:10:37;11.10;99.90
14682;DHT22;7429;52.498;13.480;2022-10-31T00:13:41;11.10;99.90
14682;DHT22;7429;52.498;13.480;2022-10-31T00:16:44;11.00;99.90
14682;DHT22;7429;52.498;13.480;2022-10-31T00:19:48;11.00;99.90
14682;DHT22;7429;52.498;13.480;2022-10-31T00:22:51;11.10;99.90
14682;DHT22;7429;52.498;13.480;2022-10-31T00:25:59;11.00;99.90
14682;DHT22;7429;52.498;13.480;2022-10-31T00:29:03;11.00;99.90
14682;DHT22;7429;52.498;13.480;2022-10-31T00:32:06;11.10;99.90
14682;DHT22;7429;52.498;13.480;2022-10-31T00:35:10;11.00;99.90
14682;DHT22;7429;52.498;13.480;2022-10-31T00:38:13;11.00;99.90
14682;DHT22;7429;52.498;13.480;2022-10-31T00:41:17;11.00;99.90
14682;DHT22;7429;52.498;13.480;2022-10-31T00:44:20;10.90;99.90
14682;DHT22;7429;52.498;13.480;2022-10-31T00:47:27;10.90;99.90
14682;DHT22;7429;52.498;13.480;2022-10-31T00:50:32;10.90;99.90
14682;DHT22;7429;52.498;13.480;2022-10-31T00:53:35;10.90;99.90
14682;DHT22;7429;52.498;13.480;2022-10-31T00:56:40;10.90;99.90
14682;DHT22;7429;52.498;13.480;2022-10-31T00:59:43;10.80;99.90
14682;DHT22;7429;52.498;13.480;2022-10-31T01:02:46;10.80;99.90
14682;DHT22;7429;52.498;13.480;2022-10-31T01:05:58;10.80;99.90
14682;DHT22;7429;52.498;13.480;2022-10-31T01:09:07;10.70;99.90
14682;DHT22;7429;52.498;13.480;2022-10-31T01:12:10;10.70;99.90
14682;DHT22;7429;52.498;13.480;2022-10-31T01:15:17;10.70;99.90
14682;DHT22;7429;52.498;13.480;2022-10-31T01:18:22;10.70;99.90
14682;DHT22;7429;52.498;13.480;2022-10-31T01:21:28;10.70;99.90
14682;DHT22;7429;52.498;13.480;2022-10-31T01:24:33;10.70;99.90
14682;DHT22;7429;52.498;13.480;2022-10-31T01:27:36;10.60;99.90
14682;DHT22;7429;52.498;13.480;2022-10-31T01:30:41;10.60;99.90
14682;DHT22;7429;52.498;13.480;2022-10-31T01:33:44;10.60;99.90
14682;DHT22;7429;52.498;13.480;2022-10-31T01:36:49;10.60;99.90
14682;DHT22;7429;52.498;13.480;2022-10-31T01:39:53;10.50;99.90
14682;DHT22;7429;52.498;13.480;2022-10-31T01:42:56;10.50;99.90
14682;DHT22;7429;52.498;13.480;2022-10-31T01:45:59;10.50;99.90
14682;DHT22;7429;52.498;13.480;2022-10-31T01:49:05;10.50;99.90
14682;DHT22;7429;52.498;13.480;2022-10-31T01:52:16;10.50;99.90
14682;DHT22;7429;52.498;13.480;2022-10-31T01:55:25;10.50;99.90
14682;DHT22;7429;52.498;13.480;2022-10-31T01:58:32;10.50;99.90
14682;DHT22;7429;52.498;13.480;2022-10-31T02:01:35;10.50;99.90
14682;DHT22;7429;52.498;13.480;2022-10-31T02:04:41;10.40;99.90
14682;DHT22;7429;52.498;13.480;2022-10-31T02:07:53;10.40;99.90
14682;DHT22;7429;52.498;13.480;2022-10-31T02:11:03;10.40;99.90
14682;DHT22;7429;52.498;13.480;2022-10-31T02:14:06;10.40;99.90
14682;DHT22;7429;52.498;13.480;2022-10-31T02:17:09;10.40;99.90
14682;DHT22;7429;52.498;13.480;2022-10-31T02:20:16;10.40;99.90
14682;DHT22;7429;52.498;13.480;2022-10-31T02:24:09;10.40;99.90
14682;DHT22;7429;52.498;13.480;2022-10-31T02:27:43;10.30;99.90
14682;DHT22;7429;52.498;13.480;2022-10-31T02:31:02;10.30;99.90
14682;DHT22;7429;52.498;13.480;2022-10-31T02:34:18;10.30;99.90
14682;DHT22;7429;52.498;13.480;2022-10-31T02:37:27;10.30;99.90
14682;DHT22;7429;52.498;13.480;2022-10-31T02:40:51;10.30;99.90
14682;DHT22;7429;52.498;13.480;2022-10-31T02:44:10;10.30;99.90
14682;DHT22;7429;52.498;13.480;2022-10-31T02:47:23;10.30;99.90
14682;DHT22;7429;52.498;13.480;2022-10-31T02:50:31;10.30;99.90
14682;DHT22;7429;52.498;13.480;2022-10-31T02:53:38;10.30;99.90
14682;DHT22;7429;52.498;13.480;2022-10-31T02:56:44;10.30;99.90
14682;DHT22;7429;52.498;13.480;2022-10-31T02:59:51;10.30;99.90
14682;DHT22;7429;52.498;13.480;2022-10-31T03:03:03;10.30;99.90
14682;DHT22;7429;52.498;13.480;2022-10-31T03:06:16;10.20;99.90
14682;DHT22;7429;52.498;13.480;2022-10-31T03:09:24;10.20;99.90
14682;DHT22;7429;52.498;13.480;2022-10-31T03:12:38;10.20;99.90
14682;DHT22;7429;52.498;13.480;2022-10-31T03:15:50;10.10;99.90
14682;DHT22;7429;52.498;13.480;2022-10-31T03:18:59;10.10;99.90
14682;DHT22;7429;52.498;13.480;2022-10-31T03:22:07;10.10;99.90
14682;DHT22;7429;52.498;13.480;2022-10-31T03:25:16;10.00;99.90
14682;DHT22;7429;52.498;13.480;2022-10-31T03:28:23;10.00;99.90
14682;DHT22;7429;52.498;13.480;2022-10-31T03:31:33;10.00;99.90
14682;DHT22;7429;52.498;13.480;2022-10-31T03:34:43;10.00;99.90
14682;DHT22;7429;52.498;13.480;2022-10-31T03:37:48;10.00;99.90
14682;DHT22;7429;52.498;13.480;2022-10-31T03:40:54;10.00;99.90
14682;DHT22;7429;52.498;13.480;2022-10-31T03:44:01;9.90;99.90
14682;DHT22;7429;52.498;13.480;2022-10-31T03:47:08;10.00;99.90
14682;DHT22;7429;52.498;13.480;2022-10-31T03:50:14;10.00;99.90
14682;DHT22;7429;52.498;13.480;2022-10-31T03:53:24;10.00;99.90
14682;DHT22;7429;52.498;13.480;2022-10-31T03:56:33;10.00;99.90
14682;DHT22;7429;52.498;13.480;2022-10-31T03:59:41;10.00;99.90
14682;DHT22;7429;52.498;13.480;2022-10-31T04:02:53;10.00;99.90
14682;DHT22;7429;52.498;13.480;2022-10-31T04:06:07;10.00;99.90
14682;DHT22;7429;52.498;13.480;2022-10-31T04:09:14;10.10;99.90
14682;DHT22;7429;52.498;13.480;2022-10-31T04:12:19;10.10;99.90
14682;DHT22;7429;52.498;13.480;2022-10-31T04:15:35;10.10;99.90
14682;DHT22;7429;52.498;13.480;2022-10-31T04:18:39;10.10;99.90
14682;DHT22;7429;52.498;13.480;2022-10-31T04:21:43;10.10;99.90
14682;DHT22;7429;52.498;13.480;2022-10-31T04:24:46;10.10;99.90
14682;DHT22;7429;52.498;13.480;2022-10-31T04:27:51;10.10;99.90
14682;DHT22;7429;52.498;13.480;2022-10-31T04:30:54;10.10;99.90
14682;DHT22;7429;52.498;13.480;2022-10-31T04:33:58;10.10;99.90
14682;DHT22;7429;52.498;13.480;2022-10-31T04:37:02;10.10;99.90
14682;DHT22;7429;52.498;13.480;2022-10-31T04:40:08;10.00;99.90
14682;DHT22;7429;52.498;13.480;2022-10-31T04:43:30;10.00;99.90
14682;DHT22;7429;52.498;13.480;2022-10-31T04:46:34;10.00;99.90
14682;DHT22;7429;52.498;13.480;2022-10-31T04:49:38;10.10;99.90
14682;DHT22;7429;52.498;13.480;2022-10-31T04:52:44;10.00;99.90
14682;DHT22;7429;52.498;13.480;2022-10-31T04:55:51;10.10;99.90
14682;DHT22;7429;52.498;13.480;2022-10-31T04:58:57;10.10;99.90
14682;DHT22;7429;52.498;13.480;2022-10-31T05:02:02;10.00;99.90
14682;DHT22;7429;52.498;13.480;2022-10-31T05:05:22;10.00;99.90
14682;DHT22;7429;52.498;13.480;2022-10-31T05:08:27;10.00;99.90
14682;DHT22;7429;52.498;13.480;2022-10-31T05:11:31;10.00;99.90
14682;DHT22;7429;52.498;13.480;2022-10-31T05:14:44;10.00;99.90
14682;DHT22;7429;52.498;13.480;2022-10-31T05:18:08;10.00;99.90
14682;DHT22;7429;52.498;13.480;2022-10-31T05:21:34;9.90;99.90
14682;DHT22;7429;52.498;13.480;2022-10-31T05:24:39;9.90;99.90
14682;DHT22;7429;52.498;13.480;2022-10-31T05:27:45;10.00;99.90
14682;DHT22;7429;52.498;13.480;2022-10-31T05:30:49;9.90;99.90
14682;DHT22;7429;52.498;13.480;2022-10-31T05:33:53;9.90;99.90
14682;DHT22;7429;52.498;13.480;2022-10-31T05:37:24;9.90;99.90
14682;DHT22;7429;52.498;13.480;2022-10-31T05:40:29;9.90;99.90
14682;DHT22;7429;52.498;13.480;2022-10-31T05:43:32;9.90;99.90
14682;DHT22;7429;52.498;13.480;2022-10-31T05:46:39;9.90;99.90
14682;DHT22;7429;52.498;13.480;2022-10-31T05:50:01;9.90;99.90
14682;DHT22;7429;52.498;13.480;2022-10-31T05:53:20;9.90;99.90
14682;DHT22;7429;52.498;13.480;2022-10-31T05:56:24;9.90;99.90
14682;DHT22;7429;52.498;13.480;2022-10-31T05:59:27;9.90;99.90
14682;DHT22;7429;52.498;13.480;2022-10-31T06:02:32;9.90;99.90
14682;DHT22;7429;52.498;13.480;2022-10-31T06:06:14;9.90;99.90
14682;DHT22;7429;52.498;13.480;2022-10-31T06:09:17;10.00;99.90
14682;DHT22;7429;52.498;13.480;2022-10-31T06:12:22;10.00;99.90
14682;DHT22;7429;52.498;13.480;2022-10-31T06:15:49;10.00;99.90
14682;DHT22;7429;52.498;13.480;2022-10-31T06:18:56;10.00;99.90
14682;DHT22;7429;52.498;13.480;2022-10-31T06:21:59;10.00;99.90
14682;DHT22;7429;52.498;13.480;2022-10-31T06:25:03;10.10;99.90
14682;DHT22;7429;52.498;13.480;2022-10-31T06:28:12;10.10;99.90
14682;DHT22;7429;52.498;13.480;2022-10-31T06:31:26;10.10;99.90
14682;DHT22;7429;52.498;13.480;2022-10-31T06:34:30;10.10;99.90
14682;DHT22;7429;52.498;13.480;2022-10-31T06:37:33;10.10;99.90
14682;DHT22;7429;52.498;13.480;2022-10-31T06:41:02;10.20;99.90
14682;DHT22;7429;52.498;13.480;2022-10-31T06:44:23;10.20;99.90
14682;DHT22;7429;52.498;13.480;2022-10-31T06:47:29;10.20;99.90
14682;DHT22;7429;52.498;13.480;2022-10-31T06:50:41;10.20;99.90
14682;DHT22;7429;52.498;13.480;2022-10-31T06:53:44;10.30;99.90
14682;DHT22;7429;52.498;13.480;2022-10-31T06:56:50;10.30;99.90
14682;DHT22;7429;52.498;13.480;2022-10-31T06:59:54;10.30;99.90
14682;DHT22;7429;52.498;13.480;2022-10-31T07:03:17;10.30;99.90
14682;DHT22;7429;52.498;13.480;2022-10-31T07:06:22;10.30;99.90
14682;DHT22;7429;52.498;13.480;2022-10-31T07:09:28;10.40;99.90
14682;DHT22;7429;52.498;13.480;2022-10-31T07:12:35;10.50;99.90
14682;DHT22;7429;52.498;13.480;2022-10-31T07:15:41;10.60;99.90
14682;DHT22;7429;52.498;13.480;2022-10-31T07:18:44;10.70;99.90
14682;DHT22;7429;52.498;13.480;2022-10-31T07:21:47;10.80;99.90
14682;DHT22;7429;52.498;13.480;2022-10-31T07:24:50;10.80;99.90
14682;DHT22;7429;52.498;13.480;2022-10-31T07:28:16;11.00;99.90
14682;DHT22;7429;52.498;13.480;2022-10-31T07:31:25;11.10;99.90
14682;DHT22;7429;52.498;13.480;2022-10-31T07:34:32;11.30;99.90
14682;DHT22;7429;52.498;13.480;2022-10-31T07:37:52;11.60;99.90
14682;DHT22;7429;52.498;13.480;2022-10-31T07:40:56;11.90;99.90
14682;DHT22;7429;52.498;13.480;2022-10-31T07:44:03;12.20;99.90
14682;DHT22;7429;52.498;13.480;2022-10-31T07:47:40;12.50;99.90
14682;DHT22;7429;52.498;13.480;2022-10-31T07:51:02;12.80;99.90
14682;DHT22;7429;52.498;13.480;2022-10-31T07:54:30;13.00;99.90
14682;DHT22;7429;52.498;13.480;2022-10-31T07:57:34;13.30;99.90
14682;DHT22;7429;52.498;13.480;2022-10-31T08:00:39;13.40;99.90
14682;DHT22;7429;52.498;13.480;2022-10-31T08:03:45;13.50;99.90
14682;DHT22;7429;52.498;13.480;2022-10-31T08:07:07;13.60;99.90
14682;DHT22;7429;52.498;13.480;2022-10-31T08:10:12;13.60;99.90
14682;DHT22;7429;52.498;13.480;2022-10-31T08:13:15;13.70;99.90
14682;DHT22;7429;52.498;13.480;2022-10-31T08:16:21;13.80;99.90
14682;DHT22;7429;52.498;13.480;2022-10-31T08:19:32;13.80;99.90
14682;DHT22;7429;52.498;13.480;2022-10-31T08:22:36;13.80;99.90
14682;DHT22;7429;52.498;13.480;2022-10-31T08:25:44;13.90;99.90
14682;DHT22;7429;52.498;13.480;2022-10-31T08:28:48;13.90;99.90
14682;DHT22;7429;52.498;13.480;2022-10-31T08:31:54;13.90;99.90
14682;DHT22;7429;52.498;13.480;2022-10-31T08:35:17;13.90;99.90
14682;DHT22;7429;52.498;13.480;2022-10-31T08:38:38;14.00;99.90
14682;DHT22;7429;52.498;13.480;2022-10-31T08:41:43;14.00;99.90
14682;DHT22;7429;52.498;13.480;2022-10-31T08:44:47;14.00;99.90
14682;DHT22;7429;52.498;13.480;2022-10-31T08:47:55;14.00;99.90
14682;DHT22;7429;52.498;13.480;2022-10-31T08:51:01;14.00;99.90
14682;DHT22;7429;52.498;13.480;2022-10-31T08:54:05;14.00;99.90
14682;DHT22;7429;52.498;13.480;2022-10-31T08:57:31;14.00;99.90
14682;DHT22;7429;52.498;13.480;2022-10-31T09:00:34;14.10;99.90
14682;DHT22;7429;52.498;13.480;2022-10-31T09:03:45;14.10;99.90
14682;DHT22;7429;52.498;13.480;2022-10-31T09:06:49;14.20;99.90
14682;DHT22;7429;52.498;13.480;2022-10-31T09:10:12;14.20;99.90
14682;DHT22;7429;52.498;13.480;2022-10-31T09:13:18;14.30;99.90
14682;DHT22;7429;52.498;13.480;2022-10-31T09:16:44;14.30;99.90
14682;DHT22;7429;52.498;13.480;2022-10-31T09:19:53;14.40;99.90
14682;DHT22;7429;52.498;13.480;2022-10-31T09:23:09;14.50;99.90
14682;DHT22;7429;52.498;13.480;2022-10-31T09:26:13;14.50;99.90
14682;DHT22;7429;52.498;13.480;2022-10-31T09:29:30;14.60;99.90
14682;DHT22;7429;52.498;13.480;2022-10-31T09:32:35;14.60;99.90
14682;DHT22;7429;52.498;13.480;2022-10-31T09:35:40;14.70;99.90
14682;DHT22;7429;52.498;13.480;2022-10-31T09:38:45;14.80;99.90
14682;DHT22;7429;52.498;13.480;2022-10-31T09:42:00;14.90;99.90
14682;DHT22;7429;52.498;13.480;2022-10-31T09:45:13;14.90;99.90
14682;DHT22;7429;52.498;13.480;2022-10-31T09:48:34;15.00;99.90
14682;DHT22;7429;52.498;13.480;2022-10-31T09:51:59;15.20;99.90
14682;DHT22;7429;52.498;13.480;2022-10-31T09:55:13;15.30;99.90
14682;DHT22;7429;52.498;13.480;2022-10-31T09:58:20;15.40;99.90
14682;DHT22;7429;52.498;13.480;2022-10-31T10:01:32;15.40;99.90
14682;DHT22;7429;52.498;13.480;2022-10-31T10:04:43;15.40;99.90
14682;DHT22;7429;52.498;13.480;2022-10-31T10:07:58;15.40;99.90
14682;DHT22;7429;52.498;13.480;2022-10-31T10:11:40;15.30;99.90
14682;DHT22;7429;52.498;13.480;2022-10-31T10:15:00;15.30;99.90
14682;DHT22;7429;52.498;13.480;2022-10-31T10:18:27;15.40;99.90
14682;DHT22;7429;52.498;13.480;2022-10-31T10:21:43;15.40;99.90
14682;DHT22;7429;52.498;13.480;2022-10-31T10:25:12;15.50;99.90
14682;DHT22;7429;52.498;13.480;2022-10-31T10:28:23;15.60;99.90
14682;DHT22;7429;52.498;13.480;2022-10-31T10:31:32;15.70;99.90
14682;DHT22;7429;52.498;13.480;2022-10-31T10:34:41;15.70;99.90
14682;DHT22;7429;52.498;13.480;2022-10-31T10:37:50;15.80;99.90
14682;DHT22;7429;52.498;13.480;2022-10-31T10:40:55;15.80;99.90
14682;DHT22;7429;52.498;13.480;2022-10-31T10:43:59;15.80;99.90
14682;DHT22;7429;52.498;13.480;2022-10-31T10:47:03;15.80;99.90
14682;DHT22;7429;52.498;13.480;2022-10-31T10:50:27;15.90;99.90
14682;DHT22;7429;52.498;13.480;2022-10-31T10:53:43;16.10;99.90
14682;DHT22;7429;52.498;13.480;2022-10-31T10:57:16;16.20;99.90
14682;DHT22;7429;52.498;13.480;2022-10-31T11:00:29;16.50;99.90
14682;DHT22;7429;52.498;13.480;2022-10-31T11:03:35;16.70;99.90
14682;DHT22;7429;52.498;13.480;2022-10-31T11:06:38;16.90;99.90
14682;DHT22;7429;52.498;13.480;2022-10-31T11:09:41;17.20;99.90
14682;DHT22;7429;52.498;13.480;2022-10-31T11:12:56;17.40;99.90
14682;DHT22;7429;52.498;13.480;2022-10-31T11:16:07;17.60;99.90
14682;DHT22;7429;52.498;13.480;2022-10-31T11:19:16;17.70;99.90
14682;DHT22;7429;52.498;13.480;2022-10-31T11:22:21;17.70;99.90
14682;DHT22;7429;52.498;13.480;2022-10-31T11:25:27;17.60;99.90
14682;DHT22;7429;52.498;13.480;2022-10-31T11:28:32;17.50;99.90
14682;DHT22;7429;52.498;13.480;2022-10-31T11:31:38;17.50;99.90
14682;DHT22;7429;52.498;13.480;2022-10-31T11:34:43;17.60;99.90
14682;DHT22;7429;52.498;13.480;2022-10-31T11:37:49;17.50;99.90
14682;DHT22;7429;52.498;13.480;2022-10-31T11:40:57;17.60;99.90
14682;DHT22;7429;52.498;13.480;2022-10-31T11:44:14;17.80;99.90
14682;DHT22;7429;52.498;13.480;2022-10-31T11:47:25;17.90;99.90
14682;DHT22;7429;52.498;13.480;2022-10-31T11:50:33;18.10;99.90
14682;DHT22;7429;52.498;13.480;2022-10-31T11:53:50;18.40;99.90
14682;DHT22;7429;52.498;13.480;2022-10-31T11:57:00;18.60;99.90
14682;DHT22;7429;52.498;13.480;2022-10-31T12:00:20;18.80;99.90
14682;DHT22;7429;52.498;13.480;2022-10-31T12:03:43;19.00;99.90
14682;DHT22;7429;52.498;13.480;2022-10-31T12:06:53;19.10;99.90
14682;DHT22;7429;52.498;13.480;2022-10-31T12:09:56;19.10;99.90
14682;DHT22;7429;52.498;13.480;2022-10-31T12:13:08;19.30;99.90
14682;DHT22;7429;52.498;13.480;2022-10-31T12:16:28;19.40;99.90
14682;DHT22;7429;52.498;13.480;2022-10-31T12:19:42;19.60;99.90
14682;DHT22;7429;52.498;13.480;2022-10-31T12:23:02;19.70;99.90
14682;DHT22;7429;52.498;13.480;2022-10-31T12:26:16;19.80;99.90
14682;DHT22;7429;52.498;13.480;2022-10-31T12:29:35;19.70;99.90
14682;DHT22;7429;52.498;13.480;2022-10-31T12:33:03;19.70;99.90
14682;DHT22;7429;52.498;13.480;2022-10-31T12:36:31;19.70;99.90
14682;DHT22;7429;52.498;13.480;2022-10-31T12:39:44;19.60;99.90
14682;DHT22;7429;52.498;13.480;2022-10-31T12:43:02;19.60;99.90
14682;DHT22;7429;52.498;13.480;2022-10-31T12:46:16;19.60;99.90
14682;DHT22;7429;52.498;13.480;2022-10-31T12:49:35;19.60;99.90
14682;DHT22;7429;52.498;13.480;2022-10-31T12:52:56;19.60;99.90
14682;DHT22;7429;52.498;13.480;2022-10-31T12:56:16;19.70;99.90
14682;DHT22;7429;52.498;13.480;2022-10-31T12:59:30;19.70;99.90
14682;DHT22;7429;52.498;13.480;2022-10-31T13:02:40;19.70;99.90
14682;DHT22;7429;52.498;13.480;2022-10-31T13:05:49;19.70;99.90
14682;DHT22;7429;52.498;13.480;2022-10-31T13:08:59;19.70;99.90
14682;DHT22;7429;52.498;13.480;2022-10-31T13:12:08;19.70;99.90
14682;DHT22;7429;52.498;13.480;2022-10-31T13:15:17;19.60;99.90
14682;DHT22;7429;52.498;13.480;2022-10-31T13:18:27;19.80;99.90
14682;DHT22;7429;52.498;13.480;2022-10-31T13:21:37;19.90;99.90
14682;DHT22;7429;52.498;13.480;2022-10-31T13:24:52;19.80;99.90
14682;DHT22;7429;52.498;13.480;2022-10-31T13:28:00;19.90;99.90
14682;DHT22;7429;52.498;13.480;2022-10-31T13:31:05;20.00;99.90
14682;DHT22;7429;52.498;13.480;2022-10-31T13:34:14;20.00;99.90
14682;DHT22;7429;52.498;13.480;2022-10-31T13:37:29;20.20;99.90
14682;DHT22;7429;52.498;13.480;2022-10-31T13:40:41;20.20;99.90
14682;DHT22;7429;52.498;13.480;2022-10-31T13:43:59;20.20;99.90
14682;DHT22;7429;52.498;13.480;2022-10-31T13:47:25;20.20;99.90
14682;DHT22;7429;52.498;13.480;2022-10-31T13:50:30;20.30;99.90
14682;DHT22;7429;52.498;13.480;2022-10-31T13:53:43;20.20;99.90
14682;DHT22;7429;52.498;13.480;2022-10-31T13:56:50;20.20;99.90
14682;DHT22;7429;52.498;13.480;2022-10-31T13:59:56;20.10;99.90
14682;DHT22;7429;52.498;13.480;2022-10-31T14:03:18;20.10;99.90
14682;DHT22;7429;52.498;13.480;2022-10-31T14:06:47;19.90;99.90
14682;DHT22;7429;52.498;13.480;2022-10-31T14:10:02;19.90;99.90
14682;DHT22;7429;52.498;13.480;2022-10-31T14:13:14;19.90;99.90
14682;DHT22;7429;52.498;13.480;2022-10-31T14:16:20;19.80;99.90
14682;DHT22;7429;52.498;13.480;2022-10-31T14:19:26;19.60;99.90
14682;DHT22;7429;52.498;13.480;2022-10-31T14:22:30;19.50;99.90
14682;DHT22;7429;52.498;13.480;2022-10-31T14:25:40;19.40;99.90
14682;DHT22;7429;52.498;13.480;2022-10-31T14:28:46;19.30;99.90
14682;DHT22;7429;52.498;13.480;2022-10-31T14:31:54;19.20;99.90
14682;DHT22;7429;52.498;13.480;2022-10-31T14:34:59;19.10;99.90
14682;DHT22;7429;52.498;13.480;2022-10-31T14:38:21;19.00;99.90
14682;DHT22;7429;52.498;13.480;2022-10-31T14:41:45;18.90;99.90
14682;DHT22;7429;52.498;13.480;2022-10-31T14:45:20;18.80;99.90
14682;DHT22;7429;52.498;13.480;2022-10-31T14:49:00;18.70;99.90
14682;DHT22;7429;52.498;13.480;2022-10-31T14:52:14;18.50;99.90
14682;DHT22;7429;52.498;13.480;2022-10-31T14:55:20;18.50;99.90
14682;DHT22;7429;52.498;13.480;2022-10-31T14:58:28;18.40;99.90
14682;DHT22;7429;52.498;13.480;2022-10-31T15:01:52;18.30;99.90
14682;DHT22;7429;52.498;13.480;2022-10-31T15:04:59;18.00;99.90
14682;DHT22;7429;52.498;13.480;2022-10-31T15:08:04;17.80;99.90
14682;DHT22;7429;52.498;13.480;2022-10-31T15:11:11;17.70;99.90
14682;DHT22;7429;52.498;13.480;2022-10-31T15:14:24;17.70;99.90
14682;DHT22;7429;52.498;13.480;2022-10-31T15:17:29;17.40;99.90
14682;DHT22;7429;52.498;13.480;2022-10-31T15:20:38;17.30;99.90
14682;DHT22;7429;52.498;13.480;2022-10-31T15:23:47;17.30;99.90
14682;DHT22;7429;52.498;13.480;2022-10-31T15:26:52;17.20;99.90
14682;DHT22;7429;52.498;13.480;2022-10-31T15:29:57;17.20;99.90
14682;DHT22;7429;52.498;13.480;2022-10-31T15:33:02;17.10;99.90
14682;DHT22;7429;52.498;13.480;2022-10-31T15:36:05;17.00;99.90
14682;DHT22;7429;52.498;13.480;2022-10-31T15:39:10;17.00;99.90
14682;DHT22;7429;52.498;13.480;2022-10-31T15:42:18;16.90;99.90
14682;DHT22;7429;52.498;13.480;2022-10-31T15:45:25;16.80;99.90
14682;DHT22;7429;52.498;13.480;2022-10-31T15:48:30;16.60;99.90
14682;DHT22;7429;52.498;13.480;2022-10-31T15:51:37;16.60;99.90
14682;DHT22;7429;52.498;13.480;2022-10-31T15:54:47;16.50;99.90
14682;DHT22;7429;52.498;13.480;2022-10-31T15:57:53;16.40;99.90
14682;DHT22;7429;52.498;13.480;2022-10-31T16:00:59;16.40;99.90
14682;DHT22;7429;52.498;13.480;2022-10-31T16:04:21;16.30;99.90
14682;DHT22;7429;52.498;13.480;2022-10-31T16:07:25;16.30;99.90
14682;DHT22;7429;52.498;13.480;2022-10-31T16:10:33;16.30;99.90
14682;DHT22;7429;52.498;13.480;2022-10-31T16:13:39;16.20;99.90
14682;DHT22;7429;52.498;13.480;2022-10-31T16:16:46;16.20;99.90
14682;DHT22;7429;52.498;13.480;2022-10-31T16:19:57;16.10;99.90
14682;DHT22;7429;52.498;13.480;2022-10-31T16:23:01;16.10;99.90
14682;DHT22;7429;52.498;13.480;2022-10-31T16:26:06;16.00;99.90
14682;DHT22;7429;52.498;13.480;2022-10-31T16:29:25;16.00;99.90
14682;DHT22;7429;52.498;13.480;2022-10-31T16:32:32;16.00;99.90
14682;DHT22;7429;52.498;13.480;2022-10-31T16:35:39;15.90;99.90
14682;DHT22;7429;52.498;13.480;2022-10-31T16:38:42;15.80;99.90
14682;DHT22;7429;52.498;13.480;2022-10-31T16:41:48;15.70;99.90
14682;DHT22;7429;52.498;13.480;2022-10-31T16:44:52;15.70;99.90
14682;DHT22;7429;52.498;13.480;2022-10-31T16:48:03;15.70;99.90
14682;DHT22;7429;52.498;13.480;2022-10-31T16:51:08;15.60;99.90
14682;DHT22;7429;52.498;13.480;2022-10-31T16:54:11;15.60;99.90
14682;DHT22;7429;52.498;13.480;2022-10-31T16:57:17;15.50;99.90
14682;DHT22;7429;52.498;13.480;2022-10-31T17:00:24;15.40;99.90
14682;DHT22;7429;52.498;13.480;2022-10-31T17:03:28;15.40;99.90
14682;DHT22;7429;52.498;13.480;2022-10-31T17:06:33;15.30;99.90
14682;DHT22;7429;52.498;13.480;2022-10-31T17:09:37;15.20;99.90
14682;DHT22;7429;52.498;13.480;2022-10-31T17:12:42;15.20;99.90
14682;DHT22;7429;52.498;13.480;2022-10-31T17:15:49;15.10;99.90
14682;DHT22;7429;52.498;13.480;2022-10-31T17:18:53;15.10;99.90
14682;DHT22;7429;52.498;13.480;2022-10-31T17:21:57;15.00;99.90
14682;DHT22;7429;52.498;13.480;2022-10-31T17:25:01;14.90;99.90
14682;DHT22;7429;52.498;13.480;2022-10-31T17:28:04;14.90;99.90
14682;DHT22;7429;52.498;13.480;2022-10-31T17:31:17;14.80;99.90
14682;DHT22;7429;52.498;13.480;2022-10-31T17:34:23;14.80;99.90
14682;DHT22;7429;52.498;13.480;2022-10-31T17:37:27;14.80;99.90
14682;DHT22;7429;52.498;13.480;2022-10-31T17:40:30;14.70;99.90
14682;DHT22;7429;52.498;13.480;2022-10-31T17:43:34;14.70;99.90
14682;DHT22;7429;52.498;13.480;2022-10-31T17:46:37;14.70;99.90
14682;DHT22;7429;52.498;13.480;2022-10-31T17:49:40;14.60;99.90
14682;DHT22;7429;52.498;13.480;2022-10-31T17:52:45;14.60;99.90
14682;DHT22;7429;52.498;13.480;2022-10-31T17:55:48;14.60;99.90
14682;DHT22;7429;52.498;13.480;2022-10-31T17:58:51;14.50;99.90
14682;DHT22;7429;52.498;13.480;2022-10-31T18:01:54;14.50;99.90
14682;DHT22;7429;52.498;13.480;2022-10-31T18:04:57;14.50;99.90
14682;DHT22;7429;52.498;13.480;2022-10-31T18:08:05;14.50;99.90
14682;DHT22;7429;52.498;13.480;2022-10-31T18:11:10;14.40;99.90
14682;DHT22;7429;52.498;13.480;2022-10-31T18:14:15;14.40;99.90
14682;DHT22;7429;52.498;13.480;2022-10-31T18:17:18;14.30;99.90
14682;DHT22;7429;52.498;13.480;2022-10-31T18:20:21;14.30;99.90
14682;DHT22;7429;52.498;13.480;2022-10-31T18:23:25;14.20;99.90
14682;DHT22;7429;52.498;13.480;2022-10-31T18:26:28;14.20;99.90
14682;DHT22;7429;52.498;13.480;2022-10-31T18:29:31;14.20;99.90
14682;DHT22;7429;52.498;13.480;2022-10-31T18:32:34;14.20;99.90
14682;DHT22;7429;52.498;13.480;2022-10-31T18:35:38;14.20;99.90
14682;DHT22;7429;52.498;13.480;2022-10-31T18:38:42;14.10;99.90
14682;DHT22;7429;52.498;13.480;2022-10-31T18:41:46;14.10;99.90
14682;DHT22;7429;52.498;13.480;2022-10-31T18:44:49;14.10;99.90
14682;DHT22;7429;52.498;13.480;2022-10-31T18:47:53;14.10;99.90
14682;DHT22;7429;52.498;13.480;2022-10-31T18:50:56;14.10;99.90
14682;DHT22;7429;52.498;13.480;2022-10-31T18:54:00;14.00;99.90
14682;DHT22;7429;52.498;13.480;2022-10-31T18:57:04;14.00;99.90
14682;DHT22;7429;52.498;13.480;2022-10-31T19:00:07;14.00;99.90
14682;DHT22;7429;52.498;13.480;2022-10-31T19:03:11;13.90;99.90
14682;DHT22;7429;52.498;13.480;2022-10-31T19:06:14;13.80;99.90
14682;DHT22;7429;52.498;13.480;2022-10-31T19:09:19;13.80;99.90
14682;DHT22;7429;52.498;13.480;2022-10-31T19:12:22;13.80;99.90
14682;DHT22;7429;52.498;13.480;2022-10-31T19:15:25;13.80;99.90
14682;DHT22;7429;52.498;13.480;2022-10-31T19:18:28;13.80;99.90
14682;DHT22;7429;52.498;13.480;2022-10-31T19:21:31;13.70;99.90
14682;DHT22;7429;52.498;13.480;2022-10-31T19:24:35;13.70;99.90
14682;DHT22;7429;52.498;13.480;2022-10-31T19:27:38;13.70;99.90
14682;DHT22;7429;52.498;13.480;2022-10-31T19:30:42;13.70;99.90
14682;DHT22;7429;52.498;13.480;2022-10-31T19:33:45;13.70;99.90
14682;DHT22;7429;52.498;13.480;2022-10-31T19:36:48;13.70;99.90
14682;DHT22;7429;52.498;13.480;2022-10-31T19:39:53;13.70;99.90
14682;DHT22;7429;52.498;13.480;2022-10-31T19:42:57;13.60;99.90
14682;DHT22;7429;52.498;13.480;2022-10-31T19:46:01;13.60;99.90
14682;DHT22;7429;52.498;13.480;2022-10-31T19:49:05;13.50;99.90
14682;DHT22;7429;52.498;13.480;2022-10-31T19:52:09;13.50;99.90
14682;DHT22;7429;52.498;13.480;2022-10-31T19:55:13;13.50;99.90
14682;DHT22;7429;52.498;13.480;2022-10-31T19:58:16;13.40;99.90